Airfield :
LOGIN :

Register | Disclaimer

   EN    FR    IT 

 










Legend :    VFR   Marginal VFR   IFR   Intensive IFR   Very Intensive IFR
Visi :
Ceiling :
>= 8 km
>= 3000ft
5 to 8 km
1000 to 3000 ft
1500m to 5 km
500 to 1000 ft
800 to 1500m
200 to 500 ft
< 800m
< 200 ft
Symbols :   Thunderstorms  Fog  Heavy snow  Heavy precipitations  Wind > 20 kt
SIGMETs :     Misc.  Thunderstorms  Icing  Turbulence  Mountain Waves  Volcanic Ashes







- Airport Elevation : 1906 ft
- IATA code : INN


LOWI - Innsbruck

CURRENT METAR :
  • 230850Z VRB03KT CAVOK 05/M00 Q1016 NOSIG

EXPIRED METARs :
  • 230820Z 27005KT 240V300 CAVOK 03/M01 Q1016 NOSIG
  • 230750Z 28006KT 260V320 CAVOK 01/M01 Q1015 NOSIG
  • 230720Z 26005KT 220V290 CAVOK 00/M02 Q1015 NOSIG
  • 230650Z 27004KT 230V310 CAVOK M01/M03 Q1015 NOSIG
  • 230620Z 25005KT 190V280 CAVOK M00/M02 Q1015 NOSIG

TAF TAF LOWI
Valid from the 23 at 06:00 until the 24 at 06:00 UTC


230515Z 2306/2406 27010KT CAVOK TX10/2313Z TNM02/2306Z
BECMG 2310/2312 10006KT
TEMPO 2312/2318 12012G25KT
BECMG 2318/2320 27008KT
No reported NOTAMs for that airfield.



MET'MAP, your aeronautical weather chart ! - Copyright ORBIFLY December 2007 - Disclaimer

ORBIFLY MET'MAP TEAM :

Programming & Development : Alexandra Zaïnal
Concept & Development : Baudouin d'Aumeries
Co-Development & Prog : Marc-Olivier Méhu
Technical & hardware support : Manuel Goepfert

Contact : metmap@orbifly.com




SOURCES & CREDITS :

   NOAA